Latest Weather Observations for Richmond

IDQ60801

Issued at 11:52 pm EST Sunday 25 October 2020 (issued every 10 minutes, with the page automatically refreshed every 10 minutes)

About weather observations | Map of weather stations | Latest weather observations for QLD | Other Formats
Station Details ID: 030161 Name: RICHMOND AIRPORT Lat: -20.70 Lon: 143.12 Height: 206.3 m
Data from the previous 72 hours. | See also: Recent months at Richmond
Date/Time
EST
Temp
°C
App
Temp
°C
Dew
Point
°C
Rel
Hum
%
Delta-T
°C
Wind Press
QNH
hPa
Press
MSL
hPa
Rain since
9am
mm
Dir  Spd
km/h
Gust
km/h
Spd
kts
Gust
kts
25/11:30pm 21.9 19.9 12.7 56 5.3 S 15 17 8 9 1012.1 1010.8 0.0
25/11:00pm 23.0 21.9 13.2 54 5.7 SSE 11 13 6 7 1012.1 1010.8 0.0
25/10:30pm 23.2 21.6 12.8 52 6.0 S 13 17 7 9 1012.1 1010.8 0.0
25/10:00pm 24.1 22.2 13.0 50 6.5 S 15 19 8 10 1011.8 1010.5 0.0
25/09:30pm 24.5 22.7 13.4 50 6.5 S 15 19 8 10 1011.4 1010.1 0.0
25/09:00pm 24.9 23.7 14.1 51 6.4 S 13 17 7 9 1011.1 1009.8 0.0
25/08:30pm 25.1 24.4 14.3 51 6.5 S 11 13 6 7 1010.9 1009.6 0.0
25/08:00pm 26.8 25.1 13.5 44 7.9 SSW 15 17 8 9 1010.6 1009.3 0.0
25/07:30pm 27.7 26.0 13.6 42 8.4 SSW 15 19 8 10 1010.1 1008.8 0.0
25/07:00pm 28.9 27.2 13.6 39 9.2 SSW 15 19 8 10 1009.8 1008.5 0.0
25/06:30pm 30.2 27.4 12.6 34 10.5 SSW 19 24 10 13 1009.3 1008.1 0.0
25/06:00pm 31.8 29.0 12.6 31 11.5 SSW 19 28 10 15 1009.2 1008.0 0.0
25/05:30pm 32.9 30.7 12.0 28 12.5 SW 15 20 8 11 1009.0 1007.8 0.0
25/05:00pm 33.1 31.1 12.7 29 12.3 S 15 22 8 12 1008.9 1007.7 0.0
25/04:30pm 33.4 30.4 11.9 27 12.8 SW 19 32 10 17 1008.9 1007.7 0.0
25/04:00pm 33.6 31.6 12.6 28 12.7 SW 15 22 8 12 1009.0 1007.8 0.0
25/03:30pm 33.4 31.8 12.9 28 12.4 SW 13 28 7 15 1009.2 1008.0 0.0
25/03:00pm 33.4 31.4 14.0 31 11.9 SSW 17 28 9 15 1009.7 1008.4 0.0
25/02:30pm 33.1 31.8 13.7 31 11.9 S 13 24 7 13 1009.9 1008.6 0.0
25/02:00pm 32.7 30.5 14.3 32 11.4 SW 19 28 10 15 1010.4 1009.1 0.0
25/01:30pm 32.1 31.1 14.7 35 10.8 SW 13 20 7 11 1010.9 1009.6 0.0
25/01:00pm 31.2 30.4 13.9 35 10.5 SW 11 20 6 11 1011.3 1010.0 0.0
25/12:30pm 30.7 30.7 15.2 39 9.6 W 9 17 5 9 1011.9 1010.6 0.0
25/12:00pm 30.0 30.0 15.3 41 9.1 W 9 15 5 8 1012.2 1010.9 0.0
25/11:30am 28.9 29.3 14.7 42 8.7 ENE 6 9 3 5 1012.4 1011.1 0.0
25/11:00am 29.6 30.3 17.1 47 7.9 SE 9 15 5 8 1012.5 1011.2 0.0
25/10:30am 28.3 28.2 15.9 47 7.7 SE 11 17 6 9 1013.1 1011.8 0.0
25/10:00am 27.9 28.1 17.7 53 6.5 SSE 13 20 7 11 1013.5 1012.3 0.0
25/09:30am 26.4 26.7 16.9 56 6.0 SSE 11 17 6 9 1013.6 1012.4 0.0
25/09:00am 25.2 25.5 16.9 60 5.2 S 11 20 6 11 1013.6 1012.4 0.0
25/08:30am 24.2 25.2 17.7 67 4.1 SSW 9 13 5 7 1013.6 1012.4 0.0
25/08:00am 23.6 25.2 18.3 72 3.4 SSW 7 11 4 6 1013.3 1012.1 0.0
25/07:30am 22.8 25.7 18.1 75 3.0 CALM 0 0 0 0 1013.1 1011.8 0.0
25/07:00am 20.8 22.6 18.2 85 1.6 N 6 7 3 4 1012.8 1011.5 0.0
25/06:30am 19.7 22.4 17.8 89 1.2 CALM 0 0 0 0 1012.3 1011.0 0.0
25/06:00am 19.6 21.8 18.3 92 0.8 N 4 6 2 3 1011.6 1010.3 0.0
25/05:30am 19.4 20.9 18.1 92 0.8 N 7 9 4 5 1011.3 1010.0 0.0
25/05:00am 19.2 20.3 17.9 92 0.8 NW 9 9 5 5 1011.1 1009.8 0.0
25/04:30am 20.0 22.2 18.3 90 1.1 NW 4 6 2 3 1010.8 1009.5 0.0
25/04:00am 20.4 22.4 18.7 90 1.1 NW 6 7 3 4 1010.7 1009.4 0.0
25/03:30am 20.5 22.3 18.8 90 1.1 WNW 7 9 4 5 1010.6 1009.3 0.0
25/03:00am 20.1 21.9 18.4 90 1.1 ESE 6 9 3 5 1010.5 1009.2 0.0
25/02:30am 20.2 23.0 18.0 87 1.4 CALM 0 0 0 0 1010.9 1009.6 0.0
25/02:00am 21.0 22.3 18.4 85 1.6 ENE 9 11 5 6 1011.0 1009.7 0.0
25/01:30am 20.6 21.8 18.2 86 1.5 ESE 9 11 5 6 1011.3 1010.0 0.0
25/01:00am 20.7 21.3 18.5 87 1.4 SE 13 15 7 8 1011.8 1010.5 0.0
25/12:30am 20.4 21.1 18.0 86 1.5 SE 11 15 6 8 1011.9 1010.6 0.0
25/12:00am 20.6 22.3 18.0 85 1.6 WNW 6 11 3 6 1012.1 1010.8 0.0
 
Date/Time
EST
Temp
°C
App
Temp
°C
Dew
Point
°C
Rel
Hum
%
Delta-T
°C
Wind Press
QNH
hPa
Press
MSL
hPa
Rain since
9am
mm
Dir  Spd
km/h
Gust
km/h
Spd
kts
Gust
kts
24/11:30pm 21.4 22.0 17.6 79 2.4 NNW 11 15 6 8 1011.8 1010.5 0.0
24/11:00pm 22.2 22.4 17.6 75 2.9 NW 13 19 7 10 1011.7 1010.4 0.0
24/10:30pm 22.3 23.1 17.4 74 3.0 N 9 13 5 7 1011.4 1010.1 0.0
24/10:00pm 22.4 22.9 17.5 74 3.1 NW 11 17 6 9 1011.1 1009.8 0.0
24/09:30pm 22.9 21.8 17.8 73 3.2 NNW 20 28 11 15 1010.5 1009.2 0.0
24/09:00pm 23.0 21.3 19.0 78 2.6 N 26 35 14 19 1010.7 1009.4 0.0
24/08:30pm 22.7 22.5 19.3 81 2.2 NW 19 26 10 14 1011.5 1010.2 0.0
24/08:00pm 23.3 20.3 18.6 75 3.0 NNW 32 50 17 27 1010.4 1009.1 0.0
24/07:59pm 23.4 21.2 18.7 75 3.0 NNW 28 48 15 26 1010.3 1009.0 0.0
24/07:56pm 23.4 21.8 18.3 73 3.2 NNW 24 41 13 22 1010.4 1009.1 0.0
24/07:30pm 21.9 22.1 18.5 81 2.1 N 15 17 8 9 1009.5 1008.2 0.0
24/07:00pm 20.9 21.2 17.9 83 1.9 N 13 17 7 9 1009.0 1007.8 0.0
24/06:30pm 20.5 19.7 17.1 81 2.1 NNE 17 26 9 14 1009.2 1008.0 0.0
24/06:10pm 17.3 5.3 13.4 78 2.2 WSW 69 111 37 60 1010.3 1009.0 0.0
24/06:06pm 18.8 7.1 16.9 89 1.2 WSW 74 111 40 60 1009.7 1008.4 0.0
24/06:02pm 19.8 9.8 16.8 83 1.8 W 65 91 35 49 1010.0 1008.7 0.0
24/06:00pm 21.1 12.7 16.5 75 2.8 W 56 91 30 49 1009.8 1008.5 0.0
24/05:56pm 25.5 20.2 14.3 50 6.7 W 35 91 19 49 1009.8 1008.5 0.0
24/05:55pm 28.3 24.7 16.2 47 7.6 W 30 78 16 42 1009.6 1008.3 0.0
24/05:30pm 31.4 29.3 16.2 40 9.6 WNW 22 26 12 14 1007.0 1005.7 0.0
24/05:00pm 32.7 30.7 16.5 37 10.3 NW 22 32 12 17 1007.2 1005.9 0.0
24/04:30pm 33.7 30.4 16.1 34 11.2 WNW 28 39 15 21 1007.8 1006.5 0.0
24/04:00pm 34.0 30.3 15.9 33 11.5 NW 30 41 16 22 1008.1 1006.8 0.0
24/03:30pm 34.7 30.8 16.5 33 11.7 NW 32 41 17 22 1008.3 1007.0 0.0
24/03:05pm 34.3 30.7 16.2 34 11.5 NW 30 52 16 28 1008.4 1007.1 0.0
24/03:00pm 34.0 30.1 16.4 35 11.2 NW 32 39 17 21 1008.4 1007.1 0.0
24/02:30pm 33.2 29.8 15.7 35 11.0 NW 28 41 15 22 1008.4 1007.1 0.0
24/02:00pm 34.1 30.4 16.0 34 11.5 WNW 30 43 16 23 1008.6 1007.3 0.0
24/01:30pm 34.1 30.9 17.3 36 10.9 NW 30 43 16 23 1009.0 1007.8 0.0
24/01:00pm 33.7 30.0 16.1 34 11.2 NW 30 43 16 23 1009.6 1008.3 0.0
24/12:30pm 33.0 29.8 17.2 39 10.2 WNW 30 43 16 23 1010.3 1009.0 0.0
24/12:00pm 32.4 29.5 17.1 40 9.8 NW 28 39 15 21 1010.5 1009.2 0.0
24/11:30am 32.0 30.4 17.5 42 9.3 NNW 22 35 12 19 1010.9 1009.6 0.0
24/11:00am 30.7 28.4 17.7 45 8.4 NNW 26 39 14 21 1011.4 1010.1 0.0
24/10:30am 29.2 28.1 17.7 50 7.4 NNW 20 35 11 19 1011.6 1010.3 0.0
24/10:00am 27.6 27.8 19.4 61 5.4 N 17 24 9 13 1012.0 1010.7 0.0
24/09:57am 27.5 28.1 20.3 65 4.8 N 17 24 9 13 1012.0 1010.7 0.0
24/09:30am 22.5 20.2 18.5 78 2.5 N 28 37 15 20 1011.8 1010.5 0.0
24/09:23am 23.1 20.2 17.1 69 3.7 NNW 28 35 15 19 1012.0 1010.7 0.0
24/09:00am 28.1 26.6 16.4 49 7.3 N 19 24 10 13 1012.4 1011.1 0.2
24/08:30am 26.2 25.0 17.0 57 5.8 NNE 19 24 10 13 1011.9 1010.6 0.2
24/08:00am 23.6 21.8 16.1 62 4.6 N 20 28 11 15 1011.9 1010.6 0.2
24/07:30am 23.1 22.7 17.1 69 3.7 N 15 20 8 11 1011.9 1010.6 0.2
24/07:00am 21.5 21.3 16.7 74 2.9 N 13 19 7 10 1011.6 1010.3 0.2
24/06:30am 20.5 19.8 16.5 78 2.4 N 15 19 8 10 1011.5 1010.2 0.2
24/06:00am 20.0 18.9 16.4 80 2.2 N 17 20 9 11 1011.1 1009.8 0.2
24/05:30am 20.2 19.3 16.8 81 2.1 N 17 24 9 13 1011.1 1009.8 0.2
24/05:00am 20.5 19.1 16.5 78 2.4 N 19 28 10 15 1011.0 1009.7 0.2
24/04:30am 20.7 18.7 17.5 82 2.0 N 24 32 13 17 1009.9 1008.6 0.2
24/04:00am 21.0 18.3 18.4 85 1.6 NNE 30 37 16 20 1009.2 1008.0 0.2
24/03:31am 20.9 18.0 18.8 88 1.3 NNW 32 52 17 28 1010.0 1008.7 0.2
24/03:30am 20.8 17.9 18.9 89 1.2 NNW 32 41 17 22 1010.0 1008.7 0.2
24/03:00am 20.9 18.7 18.7 87 1.4 NNE 28 39 15 21 1008.8 1007.5 0.2
24/02:30am 20.9 17.2 19.2 90 1.1 NNE 37 52 20 28 1007.6 1006.3 0.2
24/02:14am 19.7 16.1 18.5 93 0.8 NE 35 54 19 29 1008.6 1007.3 0.2
24/02:12am 19.7 16.5 18.5 93 0.8 NE 33 50 18 27 1008.8 1007.5 0.2
24/02:00am 19.7 17.8 18.5 93 0.8 NNE 26 33 14 18 1011.1 1009.8 0.2
24/01:30am 19.9 19.2 18.7 93 0.8 ESE 20 26 11 14 1011.3 1010.0 0.2
24/01:00am 19.7 17.5 17.8 89 1.2 S 26 35 14 19 1012.2 1010.9 0.2
24/12:30am 21.7 19.3 19.1 85 1.7 SW 30 39 16 21 1012.6 1011.3 0.2
24/12:11am 21.7 21.4 19.1 85 1.7 WNW 19 37 10 20 1011.9 1010.6 0.2
24/12:00am 22.0 24.0 18.8 82 2.0 NNE 6 9 3 5 1010.9 1009.6 0.2
 
Date/Time
EST
Temp
°C
App
Temp
°C
Dew
Point
°C
Rel
Hum
%
Delta-T
°C
Wind Press
QNH
hPa
Press
MSL
hPa
Rain since
9am
mm
Dir  Spd
km/h
Gust
km/h
Spd
kts
Gust
kts
23/11:30pm 23.2 24.6 17.9 72 3.3 NE 7 13 4 7 1011.3 1010.0 0.2
23/11:00pm 23.4 23.7 17.8 71 3.5 NNE 13 17 7 9 1011.5 1010.2 0.2
23/10:30pm 23.3 23.9 17.7 71 3.5 NNE 11 19 6 10 1010.7 1009.4 0.2
23/10:00pm 23.2 22.4 18.1 73 3.2 NNE 19 24 10 13 1010.4 1009.1 0.2
23/09:30pm 23.3 25.0 18.0 72 3.3 NNE 6 9 3 5 1011.6 1010.3 0.2
23/09:00pm 23.4 23.5 18.3 73 3.2 NNE 15 19 8 10 1010.7 1009.4 0.2
23/08:30pm 23.5 23.6 18.4 73 3.2 NNE 15 19 8 10 1010.6 1009.3 0.2
23/08:00pm 23.9 23.7 18.5 72 3.4 NNE 17 22 9 12 1010.8 1009.5 0.2
23/07:30pm 24.4 23.2 18.3 69 3.9 N 22 32 12 17 1010.5 1009.2 0.2
23/07:00pm 25.0 23.9 18.7 68 4.0 NNE 22 30 12 16 1009.8 1008.5 0.2
23/06:30pm 25.5 24.7 18.4 65 4.5 NE 20 32 11 17 1009.5 1008.2 0.2
23/06:00pm 26.1 24.8 18.2 61 5.0 NE 22 33 12 18 1009.5 1008.2 0.2
23/05:30pm 26.3 25.6 18.7 63 4.9 NE 20 28 11 15 1009.3 1008.1 0.2
23/05:00pm 26.8 26.2 18.4 60 5.4 NE 19 26 10 14 1008.6 1007.3 0.2
23/04:30pm 26.8 27.3 18.4 60 5.4 NE 13 19 7 10 1008.7 1007.4 0.2
23/04:00pm 27.0 27.0 18.0 58 5.8 NE 15 22 8 12 1009.2 1008.0 0.2
23/03:30pm 27.3 27.3 18.0 56 5.9 NE 15 22 8 12 1009.2 1008.0 0.2
23/03:00pm 28.1 27.4 18.2 55 6.4 NE 19 24 10 13 1009.5 1008.2 0.2
23/02:30pm 27.7 27.2 18.7 58 5.8 NE 19 26 10 14 1009.7 1008.4 0.2
23/02:00pm 26.6 26.1 19.2 64 4.8 NE 20 32 11 17 1010.1 1008.8 0.2
23/01:30pm 25.3 26.2 20.8 76 3.0 NE 17 24 9 13 1010.7 1009.4 0.2
23/01:00pm 23.5 23.1 18.8 75 3.0 NE 19 28 10 15 1011.3 1010.0 0.2
23/12:30pm 25.8 25.8 18.2 63 4.8 NE 15 22 8 12 1011.5 1010.2 0.2
23/12:00pm 25.9 27.0 18.8 65 4.6 ENE 11 19 6 10 1011.7 1010.4 0.2
23/11:30am 25.3 28.0 18.7 67 4.2 S 2 9 1 5 1012.2 1010.9 0.2
23/11:00am 25.1 27.1 18.8 68 4.0 NW 6 9 3 5 1012.8 1011.5 0.2
23/10:30am 25.0 26.3 19.4 71 3.6 NW 11 13 6 7 1013.6 1012.4 0.0
23/10:00am 24.0 26.5 19.9 78 2.7 SE 6 9 3 5 1013.3 1012.1 0.0
23/09:30am 22.9 23.5 18.7 77 2.7 SSE 13 15 7 8 1013.1 1011.8 0.0
23/09:00am 24.7 25.3 18.6 69 3.9 W 13 15 7 8 1013.6 1012.4 0.6
23/08:30am 25.3 25.6 18.0 64 4.6 S 13 19 7 10 1013.0 1011.7 0.4
23/08:00am 24.3 23.6 18.2 68 3.9 SSW 19 24 10 13 1012.6 1011.3 0.4
23/07:30am 28.0 26.6 13.5 41 8.7 SW 13 19 7 10 1011.9 1010.6 0.0
23/07:00am 27.2 26.8 12.4 40 8.7 NNW 6 11 3 6 1011.1 1009.8 0.0
23/06:30am 26.6 26.3 12.6 42 8.2 NNW 6 7 3 4 1010.5 1009.2 0.0
23/06:00am 26.4 25.3 12.1 41 8.3 NNW 9 13 5 7 1010.2 1008.9 0.0
23/05:30am 26.5 24.6 11.8 40 8.5 NW 13 17 7 9 1010.0 1008.7 0.0
23/05:00am 27.1 25.5 12.7 41 8.5 NNW 13 19 7 10 1009.5 1008.2 0.0
23/04:30am 26.9 25.0 11.8 39 8.7 NNW 13 15 7 8 1009.1 1007.9 0.0
23/04:00am 27.4 25.4 11.4 37 9.2 WSW 13 19 7 10 1008.8 1007.5 0.0
23/03:30am 27.4 24.6 11.4 37 9.2 W 17 24 9 13 1008.9 1007.7 0.0
23/03:00am 27.1 25.6 12.0 39 8.8 W 11 15 6 8 1008.6 1007.3 0.0
23/02:30am 27.4 25.5 11.8 38 9.1 WNW 13 15 7 8 1008.4 1007.1 0.0
23/02:00am 28.2 27.1 12.1 37 9.4 NW 9 13 5 7 1008.3 1007.0 0.0
23/01:30am 28.6 26.6 11.6 34 9.9 NW 13 17 7 9 1008.7 1007.4 0.0
23/01:00am 29.2 26.6 10.8 32 10.6 N 15 20 8 11 1008.8 1007.5 0.0
23/12:30am 28.3 25.6 9.1 30 10.7 NNW 13 19 7 10 1008.6 1007.3 0.0
23/12:00am 28.7 27.2 10.4 32 10.5 NNE 9 20 5 11 1008.3 1007.0 0.0

Other formats

Comma delimited format used in spreadsheet applications
http://www.bom.gov.au/fwo/IDQ60801/IDQ60801.94341.axf

JavaScript Object Notation format (JSON) in row-major order
http://www.bom.gov.au/fwo/IDQ60801/IDQ60801.94341.json

Data quality

Most of these data are generated automatically and are frequently updated. Quality checks on data are not normally performed. It is possible for incorrect values to appear. Refer to information at About Latest Weather Observations and please check the disclaimer before using these data.